To NAV CANADA Home Page Login to a new session Search on AWWS site Feedback and Comments Disclaimer Vers la page française équivalente Tips FAQ What's new on the site To the Forecasts and Observations / NOTAM section To "File a Flight Plan" website Publications and other links Update of the User's profile FIC Telephone Numbers My Weather Data Folder Route Weather Data Regional Weather Data Local Weather Data To the Forecasts and Observations / NOTAM section
Request Generated 05/27/2016 at 19:59:01 UTC . Weather information available at that time is displayed.

METAR/TAF

HAVRE ST-PIERRE/QC    (show WxCam)

METAR CYGV 271900Z AUTO 11012G18KT 9SM OVC040 08/00 A3017 RMK SLP219=
METAR CYGV 271800Z AUTO 12013KT 9SM BKN042 08/02 A3020 RMK SLP228=
METAR CYGV 271700Z AUTO 12013G19KT 090V150 9SM BKN038 OVC230 08/02
A3023 RMK SLP241=

TAF CYGV 271938Z 2720/2808 12010G20KT P6SM OVC040 TEMPO 2720/2724
BKN020 OVC040
FM280000 10015KT 3SM -RA BR OVC004
RMK FCST BASED ON AUTO OBS. NXT FCST BY 280200Z=
Your time UTC time
Weather data provided by Environment Canada and NAV CANADA